createdAt,value
2023-01-28T00:00:39.276Z,4.60
2023-01-28T00:01:39.312Z,2.50
2023-01-28T00:02:39.317Z,5.90
2023-01-28T00:03:39.463Z,5.40
2023-01-28T00:04:39.243Z,2.70
2023-01-28T00:05:39.258Z,3.70
2023-01-28T00:06:39.237Z,4.60
2023-01-28T00:07:39.292Z,2.60
2023-01-28T00:08:39.295Z,2.70
2023-01-28T00:09:39.198Z,3.00
2023-01-28T00:10:39.205Z,5.70
2023-01-28T00:11:39.190Z,2.00
2023-01-28T00:12:39.222Z,2.30
2023-01-28T00:13:39.190Z,2.30
2023-01-28T00:14:39.168Z,2.00
2023-01-28T00:15:39.191Z,4.60
2023-01-28T00:16:39.150Z,3.10
2023-01-28T00:17:39.229Z,4.40
2023-01-28T00:18:39.162Z,4.20
2023-01-28T00:19:39.189Z,2.90
2023-01-28T00:20:39.132Z,3.70
2023-01-28T00:21:39.167Z,3.00
2023-01-28T00:22:39.187Z,5.00
2023-01-28T00:23:39.143Z,2.40
2023-01-28T00:24:39.103Z,3.50
2023-01-28T00:25:39.156Z,4.50
2023-01-28T00:26:39.111Z,4.00
2023-01-28T00:27:39.097Z,2.90
2023-01-28T00:28:39.068Z,2.30
2023-01-28T00:29:40.081Z,3.00
2023-01-28T00:30:39.188Z,2.30
2023-01-28T00:31:39.104Z,2.20
2023-01-28T00:32:39.068Z,3.30
2023-01-28T00:33:39.065Z,2.60
2023-01-28T00:34:39.081Z,2.70
2023-01-28T00:35:39.051Z,2.50
2023-01-28T00:36:39.044Z,3.70
2023-01-28T00:37:39.056Z,6.10
2023-01-28T00:38:39.004Z,2.60
2023-01-28T00:39:39.062Z,2.70
2023-01-28T00:40:39.001Z,3.30
2023-01-28T00:41:39.051Z,3.80
2023-01-28T00:42:38.985Z,2.10
2023-01-28T00:43:38.996Z,2.20
2023-01-28T00:44:39.008Z,4.30
2023-01-28T00:45:39.036Z,2.50
2023-01-28T00:46:39.006Z,2.10
2023-01-28T00:47:39.062Z,2.60
2023-01-28T00:48:39.011Z,2.40
2023-01-28T00:49:38.963Z,2.50
2023-01-28T00:50:38.973Z,2.60
2023-01-28T00:51:39.029Z,2.50
2023-01-28T00:52:38.932Z,2.60
2023-01-28T00:53:38.937Z,2.30
2023-01-28T00:54:38.926Z,3.00
2023-01-28T00:55:38.951Z,2.90
2023-01-28T00:56:38.911Z,3.70
2023-01-28T00:57:38.939Z,2.60
2023-01-28T00:58:38.891Z,4.60
2023-01-28T00:59:38.916Z,2.60
2023-01-28T01:00:38.945Z,2.30
2023-01-28T01:01:38.895Z,2.60
2023-01-28T01:02:40.992Z,2.70
2023-01-28T01:03:39.924Z,3.10
2023-01-28T01:04:39.039Z,4.90
2023-01-28T01:05:38.901Z,11.30
2023-01-28T01:06:38.857Z,3.40
2023-01-28T01:07:38.879Z,2.90
2023-01-28T01:08:38.831Z,4.60
2023-01-28T01:09:38.830Z,4.60
2023-01-28T01:10:38.834Z,8.00
2023-01-28T01:11:38.806Z,6.60
2023-01-28T01:12:38.875Z,4.10
2023-01-28T01:13:38.789Z,11.20
2023-01-28T01:14:38.868Z,13.20
2023-01-28T01:15:38.815Z,10.40
2023-01-28T01:16:38.795Z,11.30
2023-01-28T01:17:38.843Z,20.30
2023-01-28T01:18:38.796Z,24.20
2023-01-28T01:19:38.790Z,25.70
2023-01-28T01:20:38.757Z,21.40
2023-01-28T01:21:38.800Z,10.40
2023-01-28T01:22:38.796Z,10.40
2023-01-28T01:23:38.799Z,31.10
2023-01-28T01:24:38.759Z,29.60
2023-01-28T01:25:38.723Z,50.40
2023-01-28T01:26:38.757Z,24.50
2023-01-28T01:27:38.778Z,76.40
2023-01-28T01:28:38.723Z,62.00
2023-01-28T01:29:38.699Z,40.20
2023-01-28T01:30:38.751Z,8.30
2023-01-28T01:31:38.865Z,7.20
2023-01-28T01:32:38.762Z,10.20
2023-01-28T01:33:38.704Z,4.90
2023-01-28T01:34:38.696Z,5.90
2023-01-28T01:35:38.699Z,5.10
2023-01-28T01:36:38.699Z,7.90
2023-01-28T01:37:38.691Z,3.20
2023-01-28T01:38:38.657Z,3.00
2023-01-28T01:39:38.654Z,3.00
2023-01-28T01:40:38.748Z,3.80
2023-01-28T01:41:38.705Z,6.10
2023-01-28T01:42:38.694Z,3.20
2023-01-28T01:43:38.617Z,3.60
2023-01-28T01:44:38.619Z,3.50
2023-01-28T01:45:38.615Z,2.60
2023-01-28T01:46:38.666Z,4.10
2023-01-28T01:47:38.624Z,4.80
2023-01-28T01:48:38.576Z,2.70
2023-01-28T01:49:38.588Z,3.10
2023-01-28T01:50:39.658Z,2.60
2023-01-28T01:51:38.661Z,2.90
2023-01-28T01:52:38.588Z,2.70
2023-01-28T01:53:38.598Z,2.40
2023-01-28T01:54:38.672Z,3.60
2023-01-28T01:55:38.577Z,5.50
2023-01-28T01:56:38.547Z,2.50
2023-01-28T01:57:38.608Z,2.70
2023-01-28T01:58:38.564Z,3.40
2023-01-28T01:59:38.523Z,5.30
2023-01-28T02:00:38.543Z,7.10
2023-01-28T02:01:38.514Z,2.80
2023-01-28T02:02:38.566Z,2.40
2023-01-28T02:03:38.550Z,2.50
2023-01-28T02:04:38.525Z,5.40
2023-01-28T02:05:38.501Z,3.00
2023-01-28T02:06:38.499Z,4.80
2023-01-28T02:07:38.533Z,6.20
2023-01-28T02:08:38.475Z,2.40
2023-01-28T02:09:38.560Z,2.80
2023-01-28T02:10:38.467Z,2.50
2023-01-28T02:11:38.483Z,3.50
2023-01-28T02:12:38.496Z,2.20
2023-01-28T02:13:38.435Z,3.30
2023-01-28T02:14:38.463Z,2.60
2023-01-28T02:15:38.511Z,3.00
2023-01-28T02:16:38.541Z,9.80
2023-01-28T02:17:38.463Z,3.00
2023-01-28T02:18:38.444Z,3.40
2023-01-28T02:19:38.437Z,5.20
2023-01-28T02:20:38.475Z,3.40
2023-01-28T02:21:38.397Z,3.30
2023-01-28T02:22:38.394Z,5.20
2023-01-28T02:23:38.392Z,5.70
2023-01-28T02:24:38.434Z,4.20
2023-01-28T02:25:38.427Z,4.30
2023-01-28T02:26:38.376Z,3.70
2023-01-28T02:27:38.357Z,4.50
2023-01-28T02:28:38.378Z,4.40
2023-01-28T02:29:38.377Z,3.50
2023-01-28T02:30:38.434Z,3.90
2023-01-28T02:31:38.424Z,4.70
2023-01-28T02:32:38.340Z,4.20
2023-01-28T02:33:38.344Z,4.10
2023-01-28T02:34:38.333Z,4.10
2023-01-28T02:35:38.374Z,4.30
2023-01-28T02:36:38.321Z,6.90
2023-01-28T02:37:38.297Z,4.50
2023-01-28T02:38:39.330Z,4.10
2023-01-28T02:39:38.286Z,4.10
2023-01-28T02:40:38.314Z,4.90
2023-01-28T02:41:38.276Z,4.30
2023-01-28T02:42:38.269Z,5.70
2023-01-28T02:43:38.297Z,8.30
2023-01-28T02:44:38.299Z,3.80
2023-01-28T02:45:38.281Z,3.70
2023-01-28T02:46:38.240Z,4.10
2023-01-28T02:47:38.327Z,3.80
2023-01-28T02:48:38.244Z,3.60
2023-01-28T02:49:38.214Z,3.80
2023-01-28T02:50:38.224Z,3.70
2023-01-28T02:51:38.240Z,5.10
2023-01-28T02:52:38.233Z,3.50
2023-01-28T02:53:38.201Z,3.80
2023-01-28T02:54:38.202Z,3.30
2023-01-28T02:55:38.180Z,6.60
2023-01-28T02:56:38.200Z,5.20
2023-01-28T02:57:38.225Z,3.10
2023-01-28T02:58:38.236Z,3.60
2023-01-28T02:59:38.141Z,6.50
2023-01-28T03:00:38.145Z,3.30
2023-01-28T03:01:38.198Z,3.20
2023-01-28T03:02:38.174Z,3.10
2023-01-28T03:03:38.217Z,3.30
2023-01-28T03:04:38.155Z,2.90
2023-01-28T03:05:38.133Z,3.30
2023-01-28T03:06:38.130Z,4.00
2023-01-28T03:07:38.129Z,3.60
2023-01-28T03:08:38.134Z,4.30
2023-01-28T03:09:38.138Z,3.10
2023-01-28T03:10:38.080Z,3.20
2023-01-28T03:11:38.069Z,3.00
2023-01-28T03:12:38.098Z,3.80
2023-01-28T03:13:38.087Z,2.60
2023-01-28T03:14:38.144Z,3.00
2023-01-28T03:15:38.295Z,2.90
2023-01-28T03:16:38.082Z,3.10
2023-01-28T03:17:38.094Z,3.40
2023-01-28T03:18:38.082Z,2.50
2023-01-28T03:19:38.122Z,2.70
2023-01-28T03:20:38.027Z,2.70
2023-01-28T03:21:38.044Z,3.10
2023-01-28T03:22:38.041Z,2.50
2023-01-28T03:23:38.011Z,2.40
2023-01-28T03:24:38.041Z,4.50
2023-01-28T03:25:38.027Z,2.00
2023-01-28T03:26:37.984Z,2.30
2023-01-28T03:27:38.023Z,3.30
2023-01-28T03:28:37.991Z,2.70
2023-01-28T03:29:37.970Z,3.60
2023-01-28T03:30:38.025Z,2.50
2023-01-28T03:31:38.026Z,2.40
2023-01-28T03:32:37.968Z,2.80
2023-01-28T03:33:37.971Z,2.50
2023-01-28T03:34:37.961Z,1.90
2023-01-28T03:35:37.964Z,1.70
2023-01-28T03:36:37.957Z,2.00
2023-01-28T03:37:37.927Z,1.60
2023-01-28T03:38:37.913Z,2.00
2023-01-28T03:39:37.922Z,3.00
2023-01-28T03:40:37.908Z,3.20
2023-01-28T03:41:37.943Z,1.60
2023-01-28T03:42:37.975Z,1.70
2023-01-28T03:43:37.881Z,1.70
2023-01-28T03:44:37.880Z,2.00
2023-01-28T03:45:37.876Z,1.70
2023-01-28T03:46:37.993Z,2.20
2023-01-28T03:47:38.239Z,2.70
2023-01-28T03:48:37.915Z,4.80
2023-01-28T03:49:37.844Z,3.70
2023-01-28T03:50:37.843Z,2.20
2023-01-28T03:51:37.832Z,1.50
2023-01-28T03:52:37.898Z,1.90
2023-01-28T03:53:37.867Z,1.80
2023-01-28T03:54:37.818Z,5.40
2023-01-28T03:55:37.816Z,1.50
2023-01-28T03:56:37.868Z,2.40
2023-01-28T03:57:37.818Z,3.40
2023-01-28T03:58:37.789Z,3.50
2023-01-28T03:59:37.772Z,2.10
2023-01-28T04:00:37.827Z,1.80
2023-01-28T04:01:37.805Z,2.40
2023-01-28T04:02:37.845Z,2.20
2023-01-28T04:03:37.836Z,1.50
2023-01-28T04:04:37.798Z,2.00
2023-01-28T04:05:37.743Z,1.70
2023-01-28T04:06:37.794Z,6.40
2023-01-28T04:07:37.746Z,2.90
2023-01-28T04:08:37.771Z,2.20
2023-01-28T04:09:37.738Z,3.10
2023-01-28T04:10:37.742Z,2.00
2023-01-28T04:11:37.718Z,3.80
2023-01-28T04:12:37.709Z,1.50
2023-01-28T04:13:37.738Z,1.80
2023-01-28T04:14:37.690Z,1.60
2023-01-28T04:15:37.693Z,4.20
2023-01-28T04:16:37.718Z,1.70
2023-01-28T04:17:37.662Z,1.60
2023-01-28T04:18:37.688Z,2.90
2023-01-28T04:19:37.739Z,2.20
2023-01-28T04:20:37.680Z,3.00
2023-01-28T04:21:37.703Z,2.00
2023-01-28T04:22:37.691Z,1.90
2023-01-28T04:23:37.652Z,1.60
2023-01-28T04:24:37.690Z,1.70
2023-01-28T04:25:37.629Z,1.40
2023-01-28T04:26:37.650Z,1.80
2023-01-28T04:27:37.614Z,4.00
2023-01-28T04:28:37.672Z,2.60
2023-01-28T04:29:37.650Z,4.30
2023-01-28T04:30:37.679Z,3.90
2023-01-28T04:31:37.659Z,2.30
2023-01-28T04:32:37.584Z,2.60
2023-01-28T04:33:39.262Z,2.30
2023-01-28T04:34:38.634Z,1.50
2023-01-28T04:35:37.550Z,2.30
2023-01-28T04:36:37.614Z,2.40
2023-01-28T04:37:37.572Z,2.40
2023-01-28T04:38:37.658Z,2.30
2023-01-28T04:39:37.603Z,2.90
2023-01-28T04:40:37.654Z,4.90
2023-01-28T04:41:37.589Z,1.70
2023-01-28T04:42:37.588Z,1.90
2023-01-28T04:43:37.502Z,3.70
2023-01-28T04:44:37.710Z,2.50
2023-01-28T04:45:37.600Z,2.00
2023-01-28T04:46:37.652Z,1.80
2023-01-28T04:47:37.541Z,3.40
2023-01-28T04:48:37.612Z,4.40
2023-01-28T04:49:37.499Z,1.80
2023-01-28T04:50:37.577Z,1.60
2023-01-28T04:51:37.464Z,1.90
2023-01-28T04:52:37.510Z,4.00
2023-01-28T04:53:37.522Z,4.70
2023-01-28T04:54:37.490Z,3.60
2023-01-28T04:55:37.493Z,1.70
2023-01-28T04:56:37.511Z,2.10
2023-01-28T04:57:37.435Z,3.30
2023-01-28T04:58:37.553Z,2.30
2023-01-28T04:59:37.471Z,5.80
2023-01-28T05:00:37.478Z,2.10
2023-01-28T05:01:37.496Z,2.30
2023-01-28T05:02:37.412Z,4.70
2023-01-28T05:03:37.465Z,3.80
2023-01-28T05:04:37.387Z,3.60
2023-01-28T05:05:37.393Z,5.00
2023-01-28T05:06:37.423Z,1.90
2023-01-28T05:07:37.379Z,4.00
2023-01-28T05:08:37.596Z,4.70
2023-01-28T05:09:37.406Z,2.00
2023-01-28T05:10:37.419Z,3.70
2023-01-28T05:11:39.182Z,4.40
2023-01-28T05:12:38.378Z,5.50
2023-01-28T05:13:37.410Z,2.00
2023-01-28T05:14:37.427Z,4.40
2023-01-28T05:15:37.307Z,3.70
2023-01-28T05:16:37.348Z,2.10
2023-01-28T05:17:37.341Z,2.10
2023-01-28T05:18:37.353Z,5.10
2023-01-28T05:19:37.588Z,3.90
2023-01-28T05:20:37.390Z,7.60
2023-01-28T05:21:37.265Z,1.90
2023-01-28T05:22:37.371Z,1.80
2023-01-28T05:23:37.272Z,2.00
2023-01-28T05:24:37.359Z,2.50
2023-01-28T05:25:37.236Z,2.00
2023-01-28T05:26:37.367Z,4.10
2023-01-28T05:27:37.239Z,2.00
2023-01-28T05:28:37.264Z,1.70
2023-01-28T05:29:37.309Z,6.80
2023-01-28T05:30:37.321Z,10.20
2023-01-28T05:31:37.259Z,1.70
2023-01-28T05:32:37.265Z,1.50
2023-01-28T05:33:37.200Z,4.30
2023-01-28T05:34:37.237Z,2.20
2023-01-28T05:35:37.190Z,3.20
2023-01-28T05:36:37.304Z,1.60
2023-01-28T05:37:37.167Z,2.70
2023-01-28T05:38:37.225Z,2.20
2023-01-28T05:39:37.182Z,1.30
2023-01-28T05:40:37.263Z,1.70
2023-01-28T05:41:37.220Z,4.50
2023-01-28T05:42:37.153Z,1.40
2023-01-28T05:43:37.225Z,2.30
2023-01-28T05:44:37.146Z,1.30
2023-01-28T05:45:37.175Z,2.60
2023-01-28T05:46:37.161Z,2.70
2023-01-28T05:47:37.164Z,2.00
2023-01-28T05:48:37.148Z,2.90
2023-01-28T05:49:37.104Z,1.50
2023-01-28T05:50:37.081Z,3.80
2023-01-28T05:51:37.109Z,1.60
2023-01-28T05:52:37.097Z,3.30
2023-01-28T05:53:37.122Z,1.30
2023-01-28T05:54:37.117Z,2.50
2023-01-28T05:55:37.104Z,1.80
2023-01-28T05:56:37.044Z,1.80
2023-01-28T05:57:37.141Z,1.70
2023-01-28T05:58:37.109Z,2.40
2023-01-28T05:59:37.082Z,3.00
2023-01-28T06:00:37.024Z,2.00
2023-01-28T06:01:37.009Z,2.30
2023-01-28T06:02:37.088Z,4.60
2023-01-28T06:03:37.084Z,1.00
2023-01-28T06:04:36.995Z,1.20
2023-01-28T06:05:37.075Z,1.60
2023-01-28T06:06:37.007Z,1.40
2023-01-28T06:07:36.990Z,1.90
2023-01-28T06:08:37.093Z,1.30
2023-01-28T06:09:38.011Z,1.60
2023-01-28T06:10:36.969Z,3.20
2023-01-28T06:11:36.961Z,1.20
2023-01-28T06:12:36.955Z,1.20
2023-01-28T06:13:37.062Z,0.90
2023-01-28T06:14:36.968Z,1.30
2023-01-28T06:15:36.996Z,1.20
2023-01-28T06:16:36.989Z,1.10
2023-01-28T06:17:36.958Z,0.90
2023-01-28T06:18:36.974Z,1.20
2023-01-28T06:19:37.001Z,2.80
2023-01-28T06:20:36.941Z,2.70
2023-01-28T06:21:36.992Z,1.50
2023-01-28T06:22:36.893Z,0.90
2023-01-28T06:23:36.927Z,1.00
2023-01-28T06:24:36.869Z,1.80
2023-01-28T06:25:36.964Z,1.00
2023-01-28T06:26:36.906Z,0.70
2023-01-28T06:27:36.904Z,4.40
2023-01-28T06:28:36.875Z,2.30
2023-01-28T06:29:36.891Z,1.10
2023-01-28T06:30:36.919Z,1.10
2023-01-28T06:31:36.837Z,1.60
2023-01-28T06:32:36.835Z,1.10
2023-01-28T06:33:36.882Z,1.20
2023-01-28T06:34:36.910Z,2.80
2023-01-28T06:35:36.885Z,1.50
2023-01-28T06:36:36.855Z,1.70
2023-01-28T06:37:36.852Z,2.00
2023-01-28T06:38:36.875Z,4.50
2023-01-28T06:39:36.843Z,2.10
2023-01-28T06:40:36.770Z,2.50
2023-01-28T06:41:36.849Z,2.40
2023-01-28T06:42:36.778Z,6.10
2023-01-28T06:43:36.813Z,2.70
2023-01-28T06:44:36.795Z,1.20
2023-01-28T06:45:36.815Z,1.10
2023-01-28T06:46:36.763Z,1.30
2023-01-28T06:47:36.834Z,1.10
2023-01-28T06:48:36.797Z,1.20
2023-01-28T06:49:36.799Z,4.00
2023-01-28T06:50:36.738Z,1.20
2023-01-28T06:51:36.750Z,1.70
2023-01-28T06:52:36.704Z,1.50
2023-01-28T06:53:36.795Z,2.20
2023-01-28T06:54:36.740Z,1.30
2023-01-28T06:55:36.663Z,0.90
2023-01-28T06:56:36.666Z,2.90
2023-01-28T06:57:36.694Z,1.00
2023-01-28T06:58:36.667Z,1.70
2023-01-28T06:59:36.678Z,1.20
2023-01-28T07:00:36.682Z,2.30
2023-01-28T07:01:36.677Z,2.30
2023-01-28T07:02:36.797Z,1.20
2023-01-28T07:03:36.714Z,1.40
2023-01-28T07:04:36.684Z,2.00
2023-01-28T07:05:36.627Z,1.30
2023-01-28T07:06:36.625Z,1.10
2023-01-28T07:07:36.619Z,1.40
2023-01-28T07:08:36.747Z,1.10
2023-01-28T07:09:36.612Z,1.50
2023-01-28T07:10:36.730Z,1.70
2023-01-28T07:11:36.589Z,1.50
2023-01-28T07:12:36.619Z,1.50
2023-01-28T07:13:36.589Z,2.70
2023-01-28T07:14:36.578Z,3.00
2023-01-28T07:15:36.628Z,3.80
2023-01-28T07:16:36.570Z,1.30
2023-01-28T07:17:36.580Z,2.20
2023-01-28T07:18:36.583Z,3.60
2023-01-28T07:19:36.556Z,1.70
2023-01-28T07:20:36.630Z,3.90
2023-01-28T07:21:36.566Z,1.40
2023-01-28T07:22:36.547Z,3.60
2023-01-28T07:23:36.573Z,0.90
2023-01-28T07:24:36.547Z,1.70
2023-01-28T07:25:36.533Z,2.40
2023-01-28T07:26:36.548Z,1.70
2023-01-28T07:27:36.551Z,1.70
2023-01-28T07:28:36.538Z,1.50
2023-01-28T07:29:36.503Z,1.20
2023-01-28T07:30:36.517Z,1.40
2023-01-28T07:31:36.625Z,1.80
2023-01-28T07:32:36.541Z,1.60
2023-01-28T07:33:36.466Z,4.40
2023-01-28T07:34:36.452Z,2.20
2023-01-28T07:35:36.511Z,6.20
2023-01-28T07:36:36.605Z,1.50
2023-01-28T07:37:36.436Z,2.10
2023-01-28T07:38:36.429Z,2.10
2023-01-28T07:39:36.421Z,1.40
2023-01-28T07:40:36.453Z,1.50
2023-01-28T07:41:36.429Z,1.60
2023-01-28T07:42:36.449Z,1.00
2023-01-28T07:43:36.456Z,1.20
2023-01-28T07:44:36.404Z,2.60
2023-01-28T07:45:36.369Z,3.50
2023-01-28T07:46:36.369Z,1.40
2023-01-28T07:47:36.434Z,5.50
2023-01-28T07:48:36.384Z,2.40
2023-01-28T07:49:36.376Z,2.00
2023-01-28T07:50:36.372Z,1.50
2023-01-28T07:51:36.355Z,1.30
2023-01-28T07:52:36.340Z,4.40
2023-01-28T07:53:36.346Z,1.40
2023-01-28T07:54:36.368Z,1.70
2023-01-28T07:55:36.303Z,3.60
2023-01-28T07:56:36.371Z,2.70
2023-01-28T07:57:36.304Z,1.40
2023-01-28T07:58:36.335Z,2.20
2023-01-28T07:59:36.316Z,3.60
2023-01-28T08:00:36.298Z,2.10
2023-01-28T08:01:36.309Z,1.60
2023-01-28T08:02:36.338Z,1.40
2023-01-28T08:03:36.300Z,1.80
2023-01-28T08:04:36.359Z,2.50
2023-01-28T08:05:36.287Z,1.60
2023-01-28T08:06:36.252Z,3.00
2023-01-28T08:07:36.274Z,1.30
2023-01-28T08:08:36.250Z,1.30
2023-01-28T08:09:36.222Z,1.30
2023-01-28T08:10:36.281Z,1.40
2023-01-28T08:11:36.242Z,1.00
2023-01-28T08:12:36.211Z,2.70
2023-01-28T08:13:36.269Z,1.80
2023-01-28T08:14:36.200Z,2.70
2023-01-28T08:15:36.217Z,1.60
2023-01-28T08:16:36.214Z,2.50
2023-01-28T08:17:36.187Z,2.20
2023-01-28T08:18:36.197Z,4.00
2023-01-28T08:19:36.185Z,1.10
2023-01-28T08:20:36.180Z,1.30
2023-01-28T08:21:36.202Z,2.10
2023-01-28T08:22:36.168Z,2.10
2023-01-28T08:23:36.206Z,2.30
2023-01-28T08:24:36.166Z,1.60
2023-01-28T08:25:36.154Z,1.70
2023-01-28T08:26:36.162Z,1.30
2023-01-28T08:27:36.144Z,1.20
2023-01-28T08:28:36.138Z,1.30
2023-01-28T08:29:36.107Z,1.60
2023-01-28T08:30:36.133Z,2.90
2023-01-28T08:31:36.169Z,4.30
2023-01-28T08:32:36.156Z,5.50
2023-01-28T08:33:36.202Z,1.60
2023-01-28T08:34:36.102Z,1.30
2023-01-28T08:35:36.090Z,3.00
2023-01-28T08:36:36.080Z,1.00
2023-01-28T08:37:36.135Z,1.80
2023-01-28T08:38:36.088Z,2.60
2023-01-28T08:39:36.053Z,1.20
2023-01-28T08:40:36.036Z,2.60
2023-01-28T08:41:36.039Z,2.00
2023-01-28T08:42:36.021Z,1.90
2023-01-28T08:43:36.066Z,1.50
2023-01-28T08:44:37.011Z,1.60
2023-01-28T08:45:36.028Z,1.80
2023-01-28T08:46:36.057Z,2.20
2023-01-28T08:47:36.009Z,1.40
2023-01-28T08:48:36.059Z,1.30
2023-01-28T08:49:36.005Z,3.10
2023-01-28T08:50:35.960Z,2.70
2023-01-28T08:51:36.031Z,3.30
2023-01-28T08:52:35.950Z,1.50
2023-01-28T08:53:35.962Z,3.70
2023-01-28T08:54:35.982Z,2.40
2023-01-28T08:55:35.985Z,1.20
2023-01-28T08:56:35.976Z,1.60
2023-01-28T08:57:35.944Z,2.50
2023-01-28T08:58:35.919Z,2.50
2023-01-28T08:59:36.007Z,2.90
2023-01-28T09:00:36.012Z,1.30
2023-01-28T09:01:35.906Z,2.30
2023-01-28T09:02:35.918Z,3.50
2023-01-28T09:03:35.878Z,1.20
2023-01-28T09:04:36.016Z,1.50
2023-01-28T09:05:35.969Z,1.30
2023-01-28T09:06:35.893Z,1.20
2023-01-28T09:07:35.870Z,1.70
2023-01-28T09:08:36.890Z,3.40
2023-01-28T09:09:35.883Z,1.40
2023-01-28T09:10:35.889Z,1.50
2023-01-28T09:11:35.856Z,3.40
2023-01-28T09:12:35.825Z,1.50
2023-01-28T09:13:35.833Z,1.40
2023-01-28T09:14:35.814Z,3.80
2023-01-28T09:15:35.819Z,1.70
2023-01-28T09:16:35.887Z,2.20
2023-01-28T09:17:35.809Z,1.30
2023-01-28T09:18:35.787Z,3.10
2023-01-28T09:19:35.785Z,2.00
2023-01-28T09:20:36.955Z,1.70
2023-01-28T09:21:35.805Z,2.40
2023-01-28T09:22:35.796Z,5.50
2023-01-28T09:23:35.757Z,2.30
2023-01-28T09:24:37.915Z,1.70
2023-01-28T09:25:35.771Z,3.00
2023-01-28T09:26:35.876Z,2.00
2023-01-28T09:27:35.745Z,1.30
2023-01-28T09:28:35.716Z,1.40
2023-01-28T09:29:35.731Z,5.50
2023-01-28T09:30:37.358Z,1.50
2023-01-28T09:31:36.820Z,1.40
2023-01-28T09:32:35.802Z,1.60
2023-01-28T09:33:35.707Z,1.40
2023-01-28T09:34:35.673Z,1.30
2023-01-28T09:35:35.678Z,2.50
2023-01-28T09:36:35.723Z,1.90
2023-01-28T09:37:35.789Z,1.20
2023-01-28T09:38:35.697Z,2.50
2023-01-28T09:39:35.660Z,2.30
2023-01-28T09:40:35.633Z,1.40
2023-01-28T09:41:35.665Z,1.30
2023-01-28T09:42:35.639Z,2.40
2023-01-28T09:43:35.640Z,3.80
2023-01-28T09:44:35.661Z,1.90
2023-01-28T09:45:35.657Z,5.20
2023-01-28T09:46:35.682Z,1.40
2023-01-28T09:47:35.626Z,1.90
2023-01-28T09:48:35.593Z,2.10
2023-01-28T09:49:35.625Z,3.80
2023-01-28T09:50:35.614Z,1.20
2023-01-28T09:51:35.605Z,2.20
2023-01-28T09:52:35.635Z,1.80
2023-01-28T09:53:35.608Z,2.10
2023-01-28T09:54:35.591Z,1.30
2023-01-28T09:55:35.547Z,1.70
2023-01-28T09:56:35.587Z,1.30
2023-01-28T09:57:35.585Z,2.30
2023-01-28T09:58:35.546Z,1.50
2023-01-28T09:59:35.530Z,1.50
2023-01-28T10:00:35.604Z,2.20
2023-01-28T10:01:35.528Z,1.60
2023-01-28T10:02:35.576Z,1.20
2023-01-28T10:03:35.538Z,3.40
2023-01-28T10:04:35.491Z,2.30
2023-01-28T10:05:35.497Z,1.30
2023-01-28T10:06:35.551Z,2.00
2023-01-28T10:07:35.492Z,2.10
2023-01-28T10:08:35.481Z,1.30
2023-01-28T10:09:35.461Z,5.00
2023-01-28T10:10:35.503Z,3.70
2023-01-28T10:11:35.442Z,1.30
2023-01-28T10:12:35.453Z,2.00
2023-01-28T10:13:35.682Z,1.50
2023-01-28T10:14:35.439Z,4.50
2023-01-28T10:15:35.465Z,1.30
2023-01-28T10:16:36.407Z,1.80
2023-01-28T10:17:35.460Z,1.50
2023-01-28T10:18:35.432Z,1.50
2023-01-28T10:19:35.461Z,4.30
2023-01-28T10:20:35.391Z,1.40
2023-01-28T10:21:35.394Z,1.80
2023-01-28T10:22:35.374Z,1.90
2023-01-28T10:23:35.387Z,3.80
2023-01-28T10:24:35.454Z,1.40
2023-01-28T10:25:35.356Z,1.60
2023-01-28T10:26:35.360Z,1.50
2023-01-28T10:27:35.331Z,2.60
2023-01-28T10:28:35.384Z,1.60
2023-01-28T10:29:35.336Z,1.00
2023-01-28T10:30:35.334Z,1.20
2023-01-28T10:31:35.382Z,1.40
2023-01-28T10:32:35.309Z,1.50
2023-01-28T10:33:35.333Z,1.30
2023-01-28T10:34:35.298Z,2.30
2023-01-28T10:35:35.304Z,2.00
2023-01-28T10:36:35.302Z,2.70
2023-01-28T10:37:35.301Z,2.10
2023-01-28T10:38:35.308Z,1.70
2023-01-28T10:39:36.278Z,1.50
2023-01-28T10:40:35.274Z,1.60
2023-01-28T10:41:38.219Z,2.30
2023-01-28T10:42:36.273Z,1.60
2023-01-28T10:43:35.265Z,2.90
2023-01-28T10:44:35.308Z,3.20
2023-01-28T10:45:36.407Z,2.50
2023-01-28T10:46:36.589Z,2.80
2023-01-28T10:47:35.248Z,1.40
2023-01-28T10:48:35.222Z,1.60
2023-01-28T10:49:35.230Z,1.50
2023-01-28T10:50:35.261Z,1.40
2023-01-28T10:51:35.224Z,1.80
2023-01-28T10:52:35.214Z,1.20
2023-01-28T10:53:35.231Z,2.70
2023-01-28T10:54:35.191Z,1.50
2023-01-28T10:55:35.152Z,1.40
2023-01-28T10:56:35.145Z,2.50
2023-01-28T10:57:35.185Z,1.30
2023-01-28T10:58:35.196Z,4.70
2023-01-28T10:59:35.132Z,4.00
2023-01-28T11:00:35.128Z,4.00
2023-01-28T11:01:35.146Z,4.40
2023-01-28T11:02:35.191Z,1.60
2023-01-28T11:03:35.121Z,1.60
2023-01-28T11:04:35.168Z,1.50
2023-01-28T11:05:35.184Z,1.90
2023-01-28T11:06:35.114Z,3.00
2023-01-28T11:07:35.274Z,5.70
2023-01-28T11:08:35.150Z,3.60
2023-01-28T11:09:35.110Z,1.80
2023-01-28T11:10:35.087Z,1.60
2023-01-28T11:11:35.099Z,2.80
2023-01-28T11:12:35.050Z,2.50
2023-01-28T11:13:35.073Z,2.20
2023-01-28T11:14:35.051Z,4.10
2023-01-28T11:15:35.068Z,2.60
2023-01-28T11:16:35.031Z,2.00
2023-01-28T11:17:35.128Z,3.60
2023-01-28T11:18:35.000Z,2.50
2023-01-28T11:19:35.130Z,4.60
2023-01-28T11:20:34.986Z,2.40
2023-01-28T11:21:34.998Z,2.30
2023-01-28T11:22:35.111Z,2.50
2023-01-28T11:23:34.966Z,2.10
2023-01-28T11:24:35.073Z,2.20
2023-01-28T11:25:35.006Z,1.80
2023-01-28T11:26:34.946Z,2.80
2023-01-28T11:27:34.949Z,3.40
2023-01-28T11:28:34.986Z,2.50
2023-01-28T11:29:35.022Z,2.50
2023-01-28T11:30:35.040Z,1.70
2023-01-28T11:31:35.011Z,3.70
2023-01-28T11:32:34.939Z,2.10
2023-01-28T11:33:34.967Z,4.40
2023-01-28T11:34:34.923Z,3.10
2023-01-28T11:35:34.950Z,2.10
2023-01-28T11:36:34.924Z,2.90
2023-01-28T11:37:34.902Z,3.00
2023-01-28T11:38:34.887Z,3.60
2023-01-28T11:39:34.903Z,2.90
2023-01-28T11:40:34.911Z,3.30
2023-01-28T11:41:34.873Z,3.30
2023-01-28T11:42:34.847Z,8.20
2023-01-28T11:43:34.899Z,3.70
2023-01-28T11:44:34.880Z,3.20
2023-01-28T11:45:34.945Z,3.80
2023-01-28T11:46:34.842Z,2.70
2023-01-28T11:47:34.833Z,4.20
2023-01-28T11:48:34.853Z,2.60
2023-01-28T11:49:34.797Z,2.50
2023-01-28T11:50:34.835Z,3.40
2023-01-28T11:51:35.330Z,3.10
2023-01-28T11:52:55.175Z,2.60
2023-01-28T11:53:36.807Z,2.60
2023-01-28T11:54:34.786Z,3.40
2023-01-28T11:55:35.004Z,2.60
2023-01-28T11:56:34.793Z,4.90
2023-01-28T11:57:34.789Z,6.40
2023-01-28T11:58:34.824Z,2.50
2023-01-28T11:59:34.768Z,3.30
2023-01-28T12:00:34.975Z,2.90
2023-01-28T12:01:34.743Z,4.40
2023-01-28T12:02:34.816Z,3.50
2023-01-28T12:03:34.793Z,3.10
2023-01-28T12:04:34.743Z,3.80
2023-01-28T12:05:34.759Z,3.30
2023-01-28T12:06:35.690Z,3.10
2023-01-28T12:07:35.715Z,3.40
2023-01-28T12:08:34.749Z,4.60
2023-01-28T12:09:34.719Z,8.20
2023-01-28T12:10:34.840Z,3.40
2023-01-28T12:11:34.698Z,3.80
2023-01-28T12:12:34.693Z,3.30
2023-01-28T12:13:34.756Z,4.10
2023-01-28T12:14:34.671Z,7.00
2023-01-28T12:15:34.706Z,3.40
2023-01-28T12:16:34.644Z,3.20
2023-01-28T12:17:34.639Z,1.90
2023-01-28T12:18:34.687Z,1.80
2023-01-28T12:19:34.664Z,1.60
2023-01-28T12:20:34.652Z,3.30
2023-01-28T12:21:34.608Z,1.80
2023-01-28T12:22:34.632Z,2.00
2023-01-28T12:23:34.610Z,7.40
2023-01-28T12:24:34.713Z,2.10
2023-01-28T12:25:34.637Z,5.00
2023-01-28T12:26:34.592Z,2.00
2023-01-28T12:27:34.593Z,1.90
2023-01-28T12:28:34.632Z,1.70
2023-01-28T12:29:34.567Z,3.90
2023-01-28T12:30:34.661Z,3.20
2023-01-28T12:31:34.646Z,3.70
2023-01-28T12:32:34.548Z,1.70
2023-01-28T12:33:34.616Z,4.50
2023-01-28T12:34:34.580Z,2.20
2023-01-28T12:35:34.563Z,3.50
2023-01-28T12:36:35.624Z,2.20
2023-01-28T12:37:34.503Z,2.10
2023-01-28T12:38:34.520Z,2.00
2023-01-28T12:39:34.542Z,2.50
2023-01-28T12:40:34.569Z,4.10
2023-01-28T12:41:34.492Z,4.00
2023-01-28T12:42:34.497Z,2.90
2023-01-28T12:43:34.481Z,2.20
2023-01-28T12:44:34.478Z,2.20
2023-01-28T12:45:34.534Z,2.20
2023-01-28T12:46:34.495Z,2.50
2023-01-28T12:47:34.449Z,1.80
2023-01-28T12:48:35.423Z,2.10
2023-01-28T12:49:34.451Z,3.80
2023-01-28T12:50:34.476Z,2.80
2023-01-28T12:51:34.422Z,3.30
2023-01-28T12:52:34.466Z,2.30
2023-01-28T12:53:34.423Z,4.10
2023-01-28T12:54:34.403Z,4.50
2023-01-28T12:55:34.533Z,2.60
2023-01-28T12:56:34.408Z,2.30
2023-01-28T12:57:34.430Z,1.90
2023-01-28T12:58:34.398Z,2.50
2023-01-28T12:59:34.381Z,5.60
2023-01-28T13:00:34.362Z,1.90
2023-01-28T13:01:34.431Z,2.50
2023-01-28T13:02:34.362Z,2.40
2023-01-28T13:03:34.356Z,2.30
2023-01-28T13:04:34.347Z,2.30
2023-01-28T13:05:34.335Z,2.30
2023-01-28T13:06:34.377Z,3.30
2023-01-28T13:07:34.357Z,5.20
2023-01-28T13:08:35.427Z,3.10
2023-01-28T13:09:34.300Z,3.90
2023-01-28T13:10:34.465Z,2.00
2023-01-28T13:11:34.298Z,2.30
2023-01-28T13:12:34.331Z,2.30
2023-01-28T13:13:34.373Z,4.60
2023-01-28T13:14:34.317Z,2.80
2023-01-28T13:15:35.288Z,2.30
2023-01-28T13:16:37.838Z,2.60
2023-01-28T13:17:35.323Z,3.00